createdAt,value
2017-04-23T00:02:03.132Z,5.5
2017-04-23T00:07:02.911Z,5.5
2017-04-23T00:12:02.732Z,5.5
2017-04-23T00:17:03.517Z,5.4
2017-04-23T00:22:02.839Z,5.5
2017-04-23T00:27:02.821Z,5.4
2017-04-23T00:32:02.794Z,5.3
2017-04-23T00:37:02.889Z,5.2
2017-04-23T00:42:03.410Z,5.1
2017-04-23T00:47:03.623Z,4.9
2017-04-23T00:52:02.666Z,4.5
2017-04-23T00:57:02.853Z,4.4
2017-04-23T01:02:02.785Z,4.2
2017-04-23T01:07:03.459Z,4.1
2017-04-23T01:12:02.941Z,4.0
2017-04-23T01:17:03.117Z,3.9
2017-04-23T01:22:03.632Z,3.9
2017-04-23T01:27:03.480Z,3.9
2017-04-23T01:32:03.305Z,4.2
2017-04-23T01:37:03.023Z,4.1
2017-04-23T01:42:02.935Z,4.2
2017-04-23T01:47:02.871Z,4.1
2017-04-23T01:52:03.149Z,4.1
2017-04-23T01:57:03.163Z,4.1
2017-04-23T02:02:03.045Z,4.1
2017-04-23T02:07:03.138Z,4.1
2017-04-23T02:12:03.306Z,4.1
2017-04-23T02:17:03.294Z,4.1
2017-04-23T02:22:03.192Z,4.1
2017-04-23T02:27:03.068Z,4.1
2017-04-23T02:32:02.713Z,4.1
2017-04-23T02:37:03.173Z,4.2
2017-04-23T02:42:03.385Z,4.2
2017-04-23T02:47:03.215Z,4.1
2017-04-23T02:52:03.066Z,3.9
2017-04-23T02:57:03.296Z,4.1
2017-04-23T03:02:03.626Z,4.0
2017-04-23T03:07:02.984Z,4.0
2017-04-23T03:12:03.392Z,4.0
2017-04-23T03:17:04.522Z,4.2
2017-04-23T03:22:03.067Z,4.1
2017-04-23T03:27:03.298Z,4.3
2017-04-23T03:32:03.878Z,4.4
2017-04-23T03:37:02.990Z,4.5
2017-04-23T03:42:03.158Z,4.4
2017-04-23T03:47:08.547Z,4.6
2017-04-23T03:52:02.866Z,4.6
2017-04-23T03:57:03.362Z,4.7
2017-04-23T04:02:13.054Z,4.6
2017-04-23T04:07:03.534Z,4.6
2017-04-23T04:12:03.038Z,4.5
2017-04-23T04:17:13.462Z,4.7
2017-04-23T04:22:02.854Z,4.7
2017-04-23T04:27:03.341Z,4.6
2017-04-23T04:32:13.092Z,4.7
2017-04-23T04:37:03.150Z,4.7
2017-04-23T04:42:03.397Z,4.7
2017-04-23T04:47:18.892Z,4.7
2017-04-23T04:52:03.180Z,4.7
2017-04-23T04:57:03.379Z,4.5
2017-04-23T05:02:14.340Z,4.5
2017-04-23T05:07:03.379Z,4.5
2017-04-23T05:12:02.772Z,4.5
2017-04-23T05:17:17.630Z,4.5
2017-04-23T05:22:03.604Z,4.5
2017-04-23T05:27:02.919Z,4.4
2017-04-23T05:32:13.731Z,4.8
2017-04-23T05:37:02.817Z,5.1
2017-04-23T05:42:03.133Z,5.1
2017-04-23T05:47:13.959Z,5.4
2017-04-23T05:52:02.754Z,5.3
2017-04-23T05:57:03.119Z,5.5
2017-04-23T06:02:13.956Z,5.7
2017-04-23T06:07:02.963Z,6.4
2017-04-23T06:12:03.480Z,6.9
2017-04-23T06:17:13.268Z,6.9
2017-04-23T06:22:03.274Z,7.0
2017-04-23T06:27:03.605Z,7.6
2017-04-23T06:32:13.203Z,7.5
2017-04-23T06:37:02.845Z,8.4
2017-04-23T06:42:02.931Z,8.8
2017-04-23T06:47:17.911Z,9.3
2017-04-23T06:52:03.184Z,9.3
2017-04-23T06:57:03.547Z,9.9
2017-04-23T07:02:16.992Z,9.8
2017-04-23T07:07:02.954Z,10.4
2017-04-23T07:12:03.425Z,10.4
2017-04-23T07:17:13.319Z,10.6
2017-04-23T07:22:03.190Z,11.2
2017-04-23T07:27:03.475Z,11.1
2017-04-23T07:32:13.064Z,12.0
2017-04-23T07:37:03.618Z,11.9
2017-04-23T07:42:02.983Z,11.9
2017-04-23T07:47:17.243Z,11.8
2017-04-23T07:52:02.931Z,11.8
2017-04-23T07:57:03.496Z,12.3
2017-04-23T08:02:16.365Z,12.4
2017-04-23T08:07:03.306Z,11.4
2017-04-23T08:12:02.913Z,11.4
2017-04-23T08:17:13.700Z,12.3
2017-04-23T08:22:03.549Z,12.7
2017-04-23T08:27:03.281Z,12.8
2017-04-23T08:32:22.238Z,12.8
2017-04-23T08:37:02.650Z,12.1
2017-04-23T08:42:03.076Z,10.6
2017-04-23T08:47:13.686Z,10.7
2017-04-23T08:52:02.714Z,10.7
2017-04-23T08:57:03.065Z,11.7
2017-04-23T09:02:16.984Z,12.8
2017-04-23T09:07:03.071Z,13.3
2017-04-23T09:12:03.525Z,13.5
2017-04-23T09:17:17.048Z,13.6
2017-04-23T09:22:02.979Z,14.4
2017-04-23T09:27:03.443Z,13.0
2017-04-23T09:32:22.382Z,13.0
2017-04-23T09:37:02.986Z,12.6
2017-04-23T09:42:03.331Z,12.6
2017-04-23T09:47:16.734Z,13.6
2017-04-23T09:52:02.959Z,13.5
2017-04-23T09:57:03.387Z,14.6
2017-04-23T10:02:17.217Z,14.4
2017-04-23T10:07:03.309Z,13.7
2017-04-23T10:12:03.078Z,14.8
2017-04-23T10:17:16.517Z,14.8
2017-04-23T10:22:03.258Z,15.5
2017-04-23T10:27:03.577Z,15.4
2017-04-23T10:32:12.763Z,16.2
2017-04-23T10:37:02.721Z,16.2
2017-04-23T10:42:03.166Z,16.3
2017-04-23T10:47:14.016Z,16.1
2017-04-23T10:52:03.202Z,16.6
2017-04-23T10:57:03.528Z,16.8
2017-04-23T11:02:09.812Z,15.3
2017-04-23T11:07:03.038Z,15.3
2017-04-23T11:12:02.886Z,14.4
2017-04-23T11:17:17.162Z,15.6
2017-04-23T11:22:03.403Z,15.8
2017-04-23T11:27:03.180Z,15.8
2017-04-23T11:32:22.239Z,17.1
2017-04-23T11:37:03.301Z,17.0
2017-04-23T11:42:02.724Z,16.0
2017-04-23T11:47:13.624Z,15.9
2017-04-23T11:52:02.676Z,16.4
2017-04-23T11:57:03.396Z,16.3
2017-04-23T12:02:13.037Z,16.6
2017-04-23T12:07:03.169Z,17.2
2017-04-23T12:12:03.638Z,17.3
2017-04-23T12:17:22.545Z,16.1
2017-04-23T12:22:03.445Z,16.0
2017-04-23T12:27:02.915Z,16.5
2017-04-23T12:32:13.650Z,16.5
2017-04-23T12:37:03.237Z,16.4
2017-04-23T12:42:02.722Z,17.3
2017-04-23T12:47:13.290Z,18.7
2017-04-23T12:52:03.568Z,18.8
2017-04-23T12:57:03.235Z,18.8
2017-04-23T13:02:16.549Z,19.0
2017-04-23T13:07:02.875Z,19.5
2017-04-23T13:12:03.459Z,19.5
2017-04-23T13:17:13.381Z,19.7
2017-04-23T13:22:03.253Z,20.6
2017-04-23T13:27:02.933Z,20.5
2017-04-23T13:32:16.734Z,20.7
2017-04-23T13:37:03.650Z,20.7
2017-04-23T13:42:03.217Z,20.7
2017-04-23T13:47:17.297Z,20.4
2017-04-23T13:52:03.063Z,20.6
2017-04-23T13:57:03.480Z,20.6
2017-04-23T14:02:17.069Z,21.1
2017-04-23T14:07:03.242Z,20.9
2017-04-23T14:12:02.746Z,21.3
2017-04-23T14:17:14.026Z,22.1
2017-04-23T14:22:03.338Z,22.1
2017-04-23T14:27:03.642Z,22.6
2017-04-23T14:32:17.522Z,24.0
2017-04-23T14:37:02.897Z,24.3
2017-04-23T14:42:03.169Z,24.5
2017-04-23T14:47:13.244Z,26.5
2017-04-23T14:52:02.947Z,27.6
2017-04-23T14:57:03.380Z,29.4
2017-04-23T15:02:12.935Z,32.0
2017-04-23T15:07:03.382Z,35.2
2017-04-23T15:12:02.840Z,35.0
2017-04-23T15:17:14.000Z,36.3
2017-04-23T15:22:03.040Z,37.6
2017-04-23T15:27:03.419Z,36.9
2017-04-23T15:32:13.304Z,36.7
2017-04-23T15:37:02.916Z,36.7
2017-04-23T15:42:03.217Z,36.7
2017-04-23T15:47:13.986Z,36.7
2017-04-23T15:52:03.403Z,37.3
2017-04-23T15:57:02.744Z,37.3
2017-04-23T16:02:13.476Z,38.9
2017-04-23T16:07:03.056Z,39.3
2017-04-23T16:12:03.436Z,39.1
2017-04-23T16:17:13.246Z,39.1
2017-04-23T16:22:02.922Z,39.7
2017-04-23T16:27:03.214Z,39.7
2017-04-23T16:32:13.780Z,40.1
2017-04-23T16:37:03.625Z,39.9
2017-04-23T16:42:02.920Z,39.9
2017-04-23T16:47:13.809Z,39.7
2017-04-23T16:52:03.513Z,39.2
2017-04-23T16:57:02.833Z,39.2
2017-04-23T17:02:17.606Z,39.1
2017-04-23T17:07:02.823Z,38.3
2017-04-23T17:12:03.341Z,38.4
2017-04-23T17:17:17.311Z,37.6
2017-04-23T17:22:02.738Z,37.6
2017-04-23T17:27:03.032Z,36.8
2017-04-23T17:37:02.892Z,34.5
2017-04-23T17:42:03.200Z,31.8
2017-04-23T17:47:10.129Z,26.4
2017-04-23T17:52:03.314Z,22.0
2017-04-23T17:57:02.638Z,19.3
2017-04-23T18:07:02.781Z,17.4
2017-04-23T18:12:03.261Z,15.9
2017-04-23T18:17:14.256Z,14.8
2017-04-23T18:22:03.651Z,13.1
2017-04-23T18:27:02.959Z,13.0
2017-04-23T18:32:17.911Z,11.7
2017-04-23T18:37:03.493Z,11.6
2017-04-23T18:42:03.197Z,10.8
2017-04-23T18:47:13.997Z,10.4
2017-04-23T18:52:03.131Z,10.3
2017-04-23T18:57:03.425Z,10.0
2017-04-23T19:02:13.323Z,9.8
2017-04-23T19:07:03.052Z,9.6
2017-04-23T19:12:03.358Z,9.3
2017-04-23T19:17:09.194Z,9.0
2017-04-23T19:22:03.117Z,8.9
2017-04-23T19:27:03.403Z,8.8
2017-04-23T19:32:02.825Z,8.7
2017-04-23T19:37:03.089Z,8.6
2017-04-23T19:42:03.244Z,8.4
2017-04-23T19:47:03.788Z,8.3
2017-04-23T19:52:03.014Z,8.0
2017-04-23T19:57:03.248Z,7.9
2017-04-23T20:02:03.603Z,7.8
2017-04-23T20:07:02.918Z,7.6
2017-04-23T20:12:03.345Z,7.5
2017-04-23T20:17:03.928Z,7.5
2017-04-23T20:22:03.045Z,7.4
2017-04-23T20:27:03.321Z,7.1
2017-04-23T20:32:03.557Z,6.9
2017-04-23T20:37:02.964Z,6.5
2017-04-23T20:42:03.109Z,6.4
2017-04-23T20:47:03.380Z,6.3
2017-04-23T20:52:02.971Z,6.2
2017-04-23T20:57:03.163Z,6.1
2017-04-23T21:02:03.546Z,6.1
2017-04-23T21:07:02.895Z,6.0
2017-04-23T21:12:03.287Z,5.9
2017-04-23T21:17:03.595Z,5.9
2017-04-23T21:22:02.976Z,5.8
2017-04-23T21:27:03.151Z,5.8
2017-04-23T21:32:03.407Z,5.7
2017-04-23T21:37:03.672Z,5.6
2017-04-23T21:42:02.977Z,5.6
2017-04-23T21:47:03.229Z,5.4
2017-04-23T21:52:03.586Z,5.4
2017-04-23T21:57:02.906Z,5.3
2017-04-23T22:02:03.259Z,5.2
2017-04-23T22:07:02.843Z,5.1
2017-04-23T22:12:03.238Z,4.9
2017-04-23T22:22:03.628Z,4.4
2017-04-23T22:27:03.100Z,4.4
2017-04-23T22:32:02.948Z,4.3
2017-04-23T22:37:02.766Z,4.2
2017-04-23T22:42:03.546Z,4.2
2017-04-23T22:47:03.428Z,4.1
2017-04-23T22:52:02.979Z,4.1
2017-04-23T22:57:03.521Z,4.1
2017-04-23T23:02:03.248Z,4.0
2017-04-23T23:07:02.983Z,3.9
2017-04-23T23:12:03.156Z,3.8
2017-04-23T23:17:03.017Z,3.7
2017-04-23T23:22:03.001Z,3.6
2017-04-23T23:27:02.824Z,3.6
2017-04-23T23:32:02.711Z,3.6
2017-04-23T23:37:03.211Z,3.3
2017-04-23T23:42:02.978Z,3.2
2017-04-23T23:47:02.869Z,3.3
2017-04-23T23:52:03.665Z,3.1
2017-04-23T23:57:03.311Z,3.1
